logo
Search for airport 
image banner adimage banner adimage banner ad
image banner ad

ZWKC - Kuqa/Qiuci

Located in Kuqa, China

ICAO - ZWKC, IATA - KCA

Data provided by Airmate  

General information

Coordinates: N41°40'36" E82°52'18"
Elevation is 3524 feet MSL.
 
View others Airports in Xinjiang Autonomous Region

Operational data

Special qualification required
Current time UTC:
Current local time:
Weather at : - ( 0 km )
METAR: YPKG 140140Z AUTO 19007KT 9999 // SCT008 16/14 Q1023 RF00.0/000.0
View NOTAMs / SUP AIP / TFR affecting this airport [VIEW]
Communications frequencies: [VIEW]

Runways:

RWY identifierQFULength (ft)Width (ft)SurfaceLDA (ft)
0883°00UNK
26263°00UNK

Airport contact information

Address: Kuqa China

Satellite view of ZWKC